sensor_id;sensor_type;location;lat;lon;timestamp;temperature;humidity
5556;DHT22;2801;50.972;7.856;2022-09-01T00:00:00;12.50;99.90
5556;DHT22;2801;50.972;7.856;2022-09-01T00:02:30;12.40;99.90
5556;DHT22;2801;50.972;7.856;2022-09-01T00:04:59;12.40;99.90
5556;DHT22;2801;50.972;7.856;2022-09-01T00:07:27;12.30;99.90
5556;DHT22;2801;50.972;7.856;2022-09-01T00:10:01;12.30;99.90
5556;DHT22;2801;50.972;7.856;2022-09-01T00:12:31;12.10;99.90
5556;DHT22;2801;50.972;7.856;2022-09-01T00:14:58;12.10;99.90
5556;DHT22;2801;50.972;7.856;2022-09-01T00:17:25;12.00;99.90
5556;DHT22;2801;50.972;7.856;2022-09-01T00:19:52;12.00;99.90
5556;DHT22;2801;50.972;7.856;2022-09-01T00:22:19;11.90;99.90
5556;DHT22;2801;50.972;7.856;2022-09-01T00:24:47;11.90;99.90
5556;DHT22;2801;50.972;7.856;2022-09-01T00:27:14;11.80;99.90
5556;DHT22;2801;50.972;7.856;2022-09-01T00:29:41;11.70;99.90
5556;DHT22;2801;50.972;7.856;2022-09-01T00:32:10;11.70;99.90
5556;DHT22;2801;50.972;7.856;2022-09-01T00:34:38;11.60;99.90
5556;DHT22;2801;50.972;7.856;2022-09-01T00:37:05;11.60;99.90
5556;DHT22;2801;50.972;7.856;2022-09-01T00:39:32;11.60;99.90
5556;DHT22;2801;50.972;7.856;2022-09-01T00:41:59;11.60;99.90
5556;DHT22;2801;50.972;7.856;2022-09-01T00:44:26;11.50;99.90
5556;DHT22;2801;50.972;7.856;2022-09-01T00:46:57;11.40;99.90
5556;DHT22;2801;50.972;7.856;2022-09-01T00:49:27;11.40;99.90
5556;DHT22;2801;50.972;7.856;2022-09-01T00:52:07;11.30;99.90
5556;DHT22;2801;50.972;7.856;2022-09-01T00:54:40;11.30;99.90
5556;DHT22;2801;50.972;7.856;2022-09-01T00:57:11;11.30;99.90
5556;DHT22;2801;50.972;7.856;2022-09-01T00:59:45;11.20;99.90
5556;DHT22;2801;50.972;7.856;2022-09-01T01:02:15;11.20;99.90
5556;DHT22;2801;50.972;7.856;2022-09-01T01:04:42;11.30;99.90
5556;DHT22;2801;50.972;7.856;2022-09-01T01:07:10;11.10;99.90
5556;DHT22;2801;50.972;7.856;2022-09-01T01:09:41;11.10;99.90
5556;DHT22;2801;50.972;7.856;2022-09-01T01:12:11;11.10;99.90
5556;DHT22;2801;50.972;7.856;2022-09-01T01:14:47;11.00;99.90
5556;DHT22;2801;50.972;7.856;2022-09-01T01:17:18;10.90;99.90
5556;DHT22;2801;50.972;7.856;2022-09-01T01:19:53;10.90;99.90
5556;DHT22;2801;50.972;7.856;2022-09-01T01:26:10;10.80;99.90
5556;DHT22;2801;50.972;7.856;2022-09-01T01:28:39;10.80;99.90
5556;DHT22;2801;50.972;7.856;2022-09-01T01:31:11;10.70;99.90
5556;DHT22;2801;50.972;7.856;2022-09-01T01:33:48;10.70;99.90
5556;DHT22;2801;50.972;7.856;2022-09-01T01:36:23;10.60;99.90
5556;DHT22;2801;50.972;7.856;2022-09-01T01:39:00;10.60;99.90
5556;DHT22;2801;50.972;7.856;2022-09-01T01:41:35;10.50;99.90
5556;DHT22;2801;50.972;7.856;2022-09-01T01:44:06;10.50;99.90
5556;DHT22;2801;50.972;7.856;2022-09-01T01:46:35;10.50;99.90
5556;DHT22;2801;50.972;7.856;2022-09-01T01:49:10;10.40;99.90
5556;DHT22;2801;50.972;7.856;2022-09-01T01:51:39;10.40;99.90
5556;DHT22;2801;50.972;7.856;2022-09-01T01:54:06;10.40;99.90
5556;DHT22;2801;50.972;7.856;2022-09-01T01:56:34;10.40;99.90
5556;DHT22;2801;50.972;7.856;2022-09-01T01:59:04;10.30;99.90
5556;DHT22;2801;50.972;7.856;2022-09-01T02:01:34;10.30;99.90
5556;DHT22;2801;50.972;7.856;2022-09-01T02:04:02;10.20;99.90
5556;DHT22;2801;50.972;7.856;2022-09-01T02:06:33;10.10;99.90
5556;DHT22;2801;50.972;7.856;2022-09-01T02:09:01;10.10;99.90
5556;DHT22;2801;50.972;7.856;2022-09-01T02:11:29;10.10;99.90
5556;DHT22;2801;50.972;7.856;2022-09-01T02:14:00;10.10;99.90
5556;DHT22;2801;50.972;7.856;2022-09-01T02:16:30;10.10;99.90
5556;DHT22;2801;50.972;7.856;2022-09-01T02:18:59;10.10;99.90
5556;DHT22;2801;50.972;7.856;2022-09-01T02:21:28;10.00;99.90
5556;DHT22;2801;50.972;7.856;2022-09-01T02:23:59;10.00;99.90
5556;DHT22;2801;50.972;7.856;2022-09-01T02:26:31;10.00;99.90
5556;DHT22;2801;50.972;7.856;2022-09-01T02:29:02;10.00;99.90
5556;DHT22;2801;50.972;7.856;2022-09-01T02:31:33;10.00;99.90
5556;DHT22;2801;50.972;7.856;2022-09-01T02:34:01;9.90;99.90
5556;DHT22;2801;50.972;7.856;2022-09-01T02:36:30;9.90;99.90
5556;DHT22;2801;50.972;7.856;2022-09-01T02:39:00;9.90;99.90
5556;DHT22;2801;50.972;7.856;2022-09-01T02:41:27;10.00;99.90
5556;DHT22;2801;50.972;7.856;2022-09-01T02:43:55;9.90;99.90
5556;DHT22;2801;50.972;7.856;2022-09-01T02:46:22;9.90;99.90
5556;DHT22;2801;50.972;7.856;2022-09-01T02:48:51;9.80;99.90
5556;DHT22;2801;50.972;7.856;2022-09-01T02:51:20;9.80;99.90
5556;DHT22;2801;50.972;7.856;2022-09-01T02:53:51;9.80;99.90
5556;DHT22;2801;50.972;7.856;2022-09-01T02:56:21;9.70;99.90
5556;DHT22;2801;50.972;7.856;2022-09-01T02:58:51;9.70;99.90
5556;DHT22;2801;50.972;7.856;2022-09-01T03:01:25;9.70;99.90
5556;DHT22;2801;50.972;7.856;2022-09-01T03:04:01;9.70;99.90
5556;DHT22;2801;50.972;7.856;2022-09-01T03:06:37;9.60;99.90
5556;DHT22;2801;50.972;7.856;2022-09-01T03:09:07;9.60;99.90
5556;DHT22;2801;50.972;7.856;2022-09-01T03:11:39;9.50;99.90
5556;DHT22;2801;50.972;7.856;2022-09-01T03:14:07;9.50;99.90
5556;DHT22;2801;50.972;7.856;2022-09-01T03:16:35;9.50;99.90
5556;DHT22;2801;50.972;7.856;2022-09-01T03:19:06;9.40;99.90
5556;DHT22;2801;50.972;7.856;2022-09-01T03:21:36;9.40;99.90
5556;DHT22;2801;50.972;7.856;2022-09-01T03:24:08;9.40;99.90
5556;DHT22;2801;50.972;7.856;2022-09-01T03:26:42;9.40;99.90
5556;DHT22;2801;50.972;7.856;2022-09-01T03:29:15;9.30;99.90
5556;DHT22;2801;50.972;7.856;2022-09-01T03:31:43;9.30;99.90
5556;DHT22;2801;50.972;7.856;2022-09-01T03:34:11;9.30;99.90
5556;DHT22;2801;50.972;7.856;2022-09-01T03:36:38;9.20;99.90
5556;DHT22;2801;50.972;7.856;2022-09-01T03:39:05;9.20;99.90
5556;DHT22;2801;50.972;7.856;2022-09-01T03:41:42;9.20;99.90
5556;DHT22;2801;50.972;7.856;2022-09-01T03:44:11;9.10;99.90
5556;DHT22;2801;50.972;7.856;2022-09-01T03:46:42;9.10;99.90
5556;DHT22;2801;50.972;7.856;2022-09-01T03:49:10;9.10;99.90
5556;DHT22;2801;50.972;7.856;2022-09-01T03:51:42;9.10;99.90
5556;DHT22;2801;50.972;7.856;2022-09-01T03:54:11;9.00;99.90
5556;DHT22;2801;50.972;7.856;2022-09-01T03:56:39;9.00;99.90
5556;DHT22;2801;50.972;7.856;2022-09-01T03:59:07;9.00;99.90
5556;DHT22;2801;50.972;7.856;2022-09-01T04:01:34;9.00;99.90
5556;DHT22;2801;50.972;7.856;2022-09-01T04:04:07;8.90;99.90
5556;DHT22;2801;50.972;7.856;2022-09-01T04:06:35;8.90;99.90
5556;DHT22;2801;50.972;7.856;2022-09-01T04:09:02;8.90;99.90
5556;DHT22;2801;50.972;7.856;2022-09-01T04:11:30;8.80;99.90
5556;DHT22;2801;50.972;7.856;2022-09-01T04:13:58;8.80;99.90
5556;DHT22;2801;50.972;7.856;2022-09-01T04:16:29;8.70;99.90
5556;DHT22;2801;50.972;7.856;2022-09-01T04:19:18;8.70;99.90
5556;DHT22;2801;50.972;7.856;2022-09-01T04:21:53;8.70;99.90
5556;DHT22;2801;50.972;7.856;2022-09-01T04:24:24;8.70;99.90
5556;DHT22;2801;50.972;7.856;2022-09-01T04:26:56;8.70;99.90
5556;DHT22;2801;50.972;7.856;2022-09-01T04:29:25;8.70;99.90
5556;DHT22;2801;50.972;7.856;2022-09-01T04:31:59;8.80;99.90
5556;DHT22;2801;50.972;7.856;2022-09-01T04:34:33;8.70;99.90
5556;DHT22;2801;50.972;7.856;2022-09-01T04:37:22;8.60;99.90
5556;DHT22;2801;50.972;7.856;2022-09-01T04:39:54;8.70;99.90
5556;DHT22;2801;50.972;7.856;2022-09-01T04:42:25;8.60;99.90
5556;DHT22;2801;50.972;7.856;2022-09-01T04:44:55;8.60;99.90
5556;DHT22;2801;50.972;7.856;2022-09-01T04:47:23;8.60;99.90
5556;DHT22;2801;50.972;7.856;2022-09-01T04:50:03;8.50;99.90
5556;DHT22;2801;50.972;7.856;2022-09-01T04:52:40;8.60;99.90
5556;DHT22;2801;50.972;7.856;2022-09-01T04:55:11;8.60;99.90
5556;DHT22;2801;50.972;7.856;2022-09-01T04:57:47;8.60;99.90
5556;DHT22;2801;50.972;7.856;2022-09-01T05:00:18;8.60;99.90
5556;DHT22;2801;50.972;7.856;2022-09-01T05:02:57;8.60;99.90
5556;DHT22;2801;50.972;7.856;2022-09-01T05:05:42;8.70;99.90
5556;DHT22;2801;50.972;7.856;2022-09-01T05:08:13;8.70;99.90
5556;DHT22;2801;50.972;7.856;2022-09-01T05:10:51;8.90;99.90
5556;DHT22;2801;50.972;7.856;2022-09-01T05:13:22;9.30;99.90
5556;DHT22;2801;50.972;7.856;2022-09-01T05:16:01;9.80;99.90
5556;DHT22;2801;50.972;7.856;2022-09-01T05:18:33;10.30;99.90
5556;DHT22;2801;50.972;7.856;2022-09-01T05:21:04;10.90;99.90
5556;DHT22;2801;50.972;7.856;2022-09-01T05:23:39;11.40;99.90
5556;DHT22;2801;50.972;7.856;2022-09-01T05:26:20;11.90;99.90
5556;DHT22;2801;50.972;7.856;2022-09-01T05:28:57;12.50;99.90
5556;DHT22;2801;50.972;7.856;2022-09-01T05:31:28;13.10;99.90
5556;DHT22;2801;50.972;7.856;2022-09-01T05:34:04;13.80;99.90
5556;DHT22;2801;50.972;7.856;2022-09-01T05:36:33;14.50;99.90
5556;DHT22;2801;50.972;7.856;2022-09-01T05:39:02;15.20;99.90
5556;DHT22;2801;50.972;7.856;2022-09-01T05:41:30;15.80;99.90
5556;DHT22;2801;50.972;7.856;2022-09-01T05:44:01;16.50;99.90
5556;DHT22;2801;50.972;7.856;2022-09-01T05:46:35;17.10;99.90
5556;DHT22;2801;50.972;7.856;2022-09-01T05:49:05;17.60;99.90
5556;DHT22;2801;50.972;7.856;2022-09-01T05:51:41;18.10;99.90
5556;DHT22;2801;50.972;7.856;2022-09-01T05:54:17;18.60;99.90
5556;DHT22;2801;50.972;7.856;2022-09-01T05:56:48;19.10;99.90
5556;DHT22;2801;50.972;7.856;2022-09-01T05:59:15;19.50;99.90
5556;DHT22;2801;50.972;7.856;2022-09-01T06:01:52;20.10;99.90
5556;DHT22;2801;50.972;7.856;2022-09-01T06:04:21;20.60;99.70
5556;DHT22;2801;50.972;7.856;2022-09-01T06:06:48;21.10;98.50
5556;DHT22;2801;50.972;7.856;2022-09-01T06:09:39;21.50;97.40
5556;DHT22;2801;50.972;7.856;2022-09-01T06:12:09;21.80;96.50
5556;DHT22;2801;50.972;7.856;2022-09-01T06:14:46;22.30;95.60
5556;DHT22;2801;50.972;7.856;2022-09-01T06:17:14;22.70;94.70
5556;DHT22;2801;50.972;7.856;2022-09-01T06:19:52;23.20;93.70
5556;DHT22;2801;50.972;7.856;2022-09-01T06:22:23;23.60;92.80
5556;DHT22;2801;50.972;7.856;2022-09-01T06:24:52;23.90;92.10
5556;DHT22;2801;50.972;7.856;2022-09-01T06:27:27;24.10;91.40
5556;DHT22;2801;50.972;7.856;2022-09-01T06:29:54;24.40;90.90
5556;DHT22;2801;50.972;7.856;2022-09-01T06:32:21;24.60;90.50
5556;DHT22;2801;50.972;7.856;2022-09-01T06:34:51;24.90;90.30
5556;DHT22;2801;50.972;7.856;2022-09-01T06:37:18;25.20;89.30
5556;DHT22;2801;50.972;7.856;2022-09-01T06:39:48;25.70;88.00
5556;DHT22;2801;50.972;7.856;2022-09-01T06:42:16;26.20;85.70
5556;DHT22;2801;50.972;7.856;2022-09-01T06:44:44;26.80;83.80
5556;DHT22;2801;50.972;7.856;2022-09-01T06:47:12;27.40;81.70
5556;DHT22;2801;50.972;7.856;2022-09-01T06:49:39;28.00;79.10
5556;DHT22;2801;50.972;7.856;2022-09-01T06:52:06;28.60;77.10
5556;DHT22;2801;50.972;7.856;2022-09-01T06:54:34;29.10;75.20
5556;DHT22;2801;50.972;7.856;2022-09-01T06:57:04;29.70;72.80
5556;DHT22;2801;50.972;7.856;2022-09-01T06:59:52;29.90;70.70
5556;DHT22;2801;50.972;7.856;2022-09-01T07:02:20;30.00;67.90
5556;DHT22;2801;50.972;7.856;2022-09-01T07:04:53;30.20;65.50
5556;DHT22;2801;50.972;7.856;2022-09-01T07:07:20;30.30;64.70
5556;DHT22;2801;50.972;7.856;2022-09-01T07:10:08;30.60;63.40
5556;DHT22;2801;50.972;7.856;2022-09-01T07:12:55;31.10;62.80
5556;DHT22;2801;50.972;7.856;2022-09-01T07:15:49;31.50;61.10
5556;DHT22;2801;50.972;7.856;2022-09-01T07:18:37;31.80;60.00
5556;DHT22;2801;50.972;7.856;2022-09-01T07:21:07;32.20;57.70
5556;DHT22;2801;50.972;7.856;2022-09-01T07:23:54;32.10;59.80
5556;DHT22;2801;50.972;7.856;2022-09-01T07:26:40;32.20;59.50
5556;DHT22;2801;50.972;7.856;2022-09-01T07:29:13;32.00;58.40
5556;DHT22;2801;50.972;7.856;2022-09-01T07:31:41;31.80;59.00
5556;DHT22;2801;50.972;7.856;2022-09-01T07:34:29;31.10;56.90
5556;DHT22;2801;50.972;7.856;2022-09-01T07:37:05;30.30;59.20
5556;DHT22;2801;50.972;7.856;2022-09-01T07:39:52;29.50;58.80
5556;DHT22;2801;50.972;7.856;2022-09-01T07:42:21;28.80;58.60
5556;DHT22;2801;50.972;7.856;2022-09-01T07:45:10;28.80;60.50
5556;DHT22;2801;50.972;7.856;2022-09-01T07:47:55;29.00;60.40
5556;DHT22;2801;50.972;7.856;2022-09-01T07:50:24;29.00;56.30
5556;DHT22;2801;50.972;7.856;2022-09-01T07:53:07;28.80;58.10
5556;DHT22;2801;50.972;7.856;2022-09-01T07:55:38;28.30;58.80
5556;DHT22;2801;50.972;7.856;2022-09-01T07:58:09;28.30;58.90
5556;DHT22;2801;50.972;7.856;2022-09-01T08:00:38;28.10;59.00
5556;DHT22;2801;50.972;7.856;2022-09-01T08:03:05;28.40;59.00
5556;DHT22;2801;50.972;7.856;2022-09-01T08:05:33;28.50;57.90
5556;DHT22;2801;50.972;7.856;2022-09-01T08:08:00;27.50;57.80
5556;DHT22;2801;50.972;7.856;2022-09-01T08:10:27;27.60;58.20
5556;DHT22;2801;50.972;7.856;2022-09-01T08:12:54;27.20;58.90
5556;DHT22;2801;50.972;7.856;2022-09-01T08:15:23;27.30;60.40
5556;DHT22;2801;50.972;7.856;2022-09-01T08:18:11;28.00;59.10
5556;DHT22;2801;50.972;7.856;2022-09-01T08:20:41;28.50;57.50
5556;DHT22;2801;50.972;7.856;2022-09-01T08:23:16;28.40;57.50
5556;DHT22;2801;50.972;7.856;2022-09-01T08:25:45;28.40;57.20
5556;DHT22;2801;50.972;7.856;2022-09-01T08:28:14;28.70;57.80
5556;DHT22;2801;50.972;7.856;2022-09-01T08:30:43;28.40;56.60
5556;DHT22;2801;50.972;7.856;2022-09-01T08:33:18;27.90;58.00
5556;DHT22;2801;50.972;7.856;2022-09-01T08:35:47;27.90;58.70
5556;DHT22;2801;50.972;7.856;2022-09-01T08:38:15;28.50;58.20
5556;DHT22;2801;50.972;7.856;2022-09-01T08:40:50;28.60;57.70
5556;DHT22;2801;50.972;7.856;2022-09-01T08:43:49;28.70;57.70
5556;DHT22;2801;50.972;7.856;2022-09-01T08:46:28;29.30;57.60
5556;DHT22;2801;50.972;7.856;2022-09-01T08:49:06;29.30;56.00
5556;DHT22;2801;50.972;7.856;2022-09-01T08:52:14;29.20;56.60
5556;DHT22;2801;50.972;7.856;2022-09-01T08:54:57;29.70;55.90
5556;DHT22;2801;50.972;7.856;2022-09-01T08:57:33;29.20;56.40
5556;DHT22;2801;50.972;7.856;2022-09-01T09:00:07;29.60;56.40
5556;DHT22;2801;50.972;7.856;2022-09-01T09:12:00;29.00;54.90
5556;DHT22;2801;50.972;7.856;2022-09-01T09:14:51;28.10;55.90
5556;DHT22;2801;50.972;7.856;2022-09-01T09:17:33;27.50;58.20
5556;DHT22;2801;50.972;7.856;2022-09-01T09:20:04;27.10;58.50
5556;DHT22;2801;50.972;7.856;2022-09-01T09:22:32;27.60;58.60
5556;DHT22;2801;50.972;7.856;2022-09-01T09:25:11;27.90;56.90
5556;DHT22;2801;50.972;7.856;2022-09-01T09:27:47;28.40;57.30
5556;DHT22;2801;50.972;7.856;2022-09-01T09:30:22;28.10;56.50
5556;DHT22;2801;50.972;7.856;2022-09-01T09:32:58;27.50;57.70
5556;DHT22;2801;50.972;7.856;2022-09-01T09:35:50;27.00;58.50
5556;DHT22;2801;50.972;7.856;2022-09-01T09:38:22;26.20;59.90
5556;DHT22;2801;50.972;7.856;2022-09-01T09:43:54;25.30;62.50
5556;DHT22;2801;50.972;7.856;2022-09-01T09:51:40;25.10;63.10
5556;DHT22;2801;50.972;7.856;2022-09-01T09:54:25;24.90;64.80
5556;DHT22;2801;50.972;7.856;2022-09-01T09:59:35;23.90;64.80
5556;DHT22;2801;50.972;7.856;2022-09-01T10:02:36;23.40;67.40
5556;DHT22;2801;50.972;7.856;2022-09-01T10:05:34;23.80;67.30
5556;DHT22;2801;50.972;7.856;2022-09-01T10:08:54;23.90;67.10
5556;DHT22;2801;50.972;7.856;2022-09-01T10:11:00;23.20;69.00
5556;DHT22;2801;50.972;7.856;2022-09-01T10:13:28;23.40;68.80
5556;DHT22;2801;50.972;7.856;2022-09-01T10:16:01;23.70;67.60
5556;DHT22;2801;50.972;7.856;2022-09-01T10:18:40;23.80;68.00
5556;DHT22;2801;50.972;7.856;2022-09-01T10:21:37;23.80;67.50
5556;DHT22;2801;50.972;7.856;2022-09-01T10:24:32;23.80;67.90
5556;DHT22;2801;50.972;7.856;2022-09-01T10:27:16;24.70;66.20
5556;DHT22;2801;50.972;7.856;2022-09-01T10:30:11;25.10;65.60
5556;DHT22;2801;50.972;7.856;2022-09-01T10:32:48;25.20;63.40
5556;DHT22;2801;50.972;7.856;2022-09-01T10:35:33;24.40;65.20
5556;DHT22;2801;50.972;7.856;2022-09-01T10:38:08;23.70;67.10
5556;DHT22;2801;50.972;7.856;2022-09-01T10:40:42;23.40;68.60
5556;DHT22;2801;50.972;7.856;2022-09-01T10:49:20;22.70;70.00
5556;DHT22;2801;50.972;7.856;2022-09-01T10:51:56;22.60;70.50
5556;DHT22;2801;50.972;7.856;2022-09-01T10:54:54;22.40;70.70
5556;DHT22;2801;50.972;7.856;2022-09-01T10:57:43;22.20;71.10
5556;DHT22;2801;50.972;7.856;2022-09-01T11:00:42;22.30;71.00
5556;DHT22;2801;50.972;7.856;2022-09-01T11:03:38;22.30;72.60
5556;DHT22;2801;50.972;7.856;2022-09-01T11:09:41;22.80;70.50
5556;DHT22;2801;50.972;7.856;2022-09-01T11:12:13;22.60;70.60
5556;DHT22;2801;50.972;7.856;2022-09-01T11:14:57;22.90;70.80
5556;DHT22;2801;50.972;7.856;2022-09-01T11:17:35;23.40;68.10
5556;DHT22;2801;50.972;7.856;2022-09-01T11:20:08;23.30;68.90
5556;DHT22;2801;50.972;7.856;2022-09-01T11:26:43;23.10;70.20
5556;DHT22;2801;50.972;7.856;2022-09-01T11:28:58;23.20;68.90
5556;DHT22;2801;50.972;7.856;2022-09-01T11:31:31;23.00;69.70
5556;DHT22;2801;50.972;7.856;2022-09-01T11:44:53;22.20;70.40
5556;DHT22;2801;50.972;7.856;2022-09-01T11:47:37;22.10;71.40
5556;DHT22;2801;50.972;7.856;2022-09-01T11:50:32;22.10;70.50
5556;DHT22;2801;50.972;7.856;2022-09-01T11:53:06;22.00;71.00
5556;DHT22;2801;50.972;7.856;2022-09-01T11:55:43;22.20;70.30
5556;DHT22;2801;50.972;7.856;2022-09-01T12:00:55;22.30;70.80
5556;DHT22;2801;50.972;7.856;2022-09-01T12:03:36;22.80;70.30
5556;DHT22;2801;50.972;7.856;2022-09-01T12:06:07;23.10;69.80
5556;DHT22;2801;50.972;7.856;2022-09-01T12:08:38;23.10;68.40
5556;DHT22;2801;50.972;7.856;2022-09-01T12:11:29;23.00;68.60
5556;DHT22;2801;50.972;7.856;2022-09-01T12:14:09;22.90;67.60
5556;DHT22;2801;50.972;7.856;2022-09-01T12:16:39;23.10;68.40
5556;DHT22;2801;50.972;7.856;2022-09-01T12:19:26;23.20;67.60
5556;DHT22;2801;50.972;7.856;2022-09-01T12:22:12;23.60;67.80
5556;DHT22;2801;50.972;7.856;2022-09-01T12:24:47;23.90;66.50
5556;DHT22;2801;50.972;7.856;2022-09-01T12:27:16;24.20;65.30
5556;DHT22;2801;50.972;7.856;2022-09-01T12:29:44;24.50;62.40
5556;DHT22;2801;50.972;7.856;2022-09-01T12:32:13;24.60;62.60
5556;DHT22;2801;50.972;7.856;2022-09-01T12:34:45;24.60;63.40
5556;DHT22;2801;50.972;7.856;2022-09-01T12:37:20;24.70;61.80
5556;DHT22;2801;50.972;7.856;2022-09-01T12:39:55;24.90;62.80
5556;DHT22;2801;50.972;7.856;2022-09-01T12:42:32;25.20;61.90
5556;DHT22;2801;50.972;7.856;2022-09-01T12:45:10;25.30;60.70
5556;DHT22;2801;50.972;7.856;2022-09-01T12:52:47;25.50;60.80
5556;DHT22;2801;50.972;7.856;2022-09-01T12:55:40;25.80;60.90
5556;DHT22;2801;50.972;7.856;2022-09-01T12:58:23;26.00;59.00
5556;DHT22;2801;50.972;7.856;2022-09-01T13:01:06;25.70;58.70
5556;DHT22;2801;50.972;7.856;2022-09-01T13:04:21;25.70;58.40
5556;DHT22;2801;50.972;7.856;2022-09-01T13:06:55;25.60;57.60
5556;DHT22;2801;50.972;7.856;2022-09-01T13:09:27;25.10;57.60
5556;DHT22;2801;50.972;7.856;2022-09-01T13:12:18;24.80;58.20
5556;DHT22;2801;50.972;7.856;2022-09-01T13:14:47;24.90;59.10
5556;DHT22;2801;50.972;7.856;2022-09-01T13:17:14;25.20;59.20
5556;DHT22;2801;50.972;7.856;2022-09-01T13:19:41;25.50;58.80
5556;DHT22;2801;50.972;7.856;2022-09-01T13:22:08;25.90;58.30
5556;DHT22;2801;50.972;7.856;2022-09-01T13:24:35;25.90;58.60
5556;DHT22;2801;50.972;7.856;2022-09-01T13:27:02;25.90;57.90
5556;DHT22;2801;50.972;7.856;2022-09-01T13:29:47;25.70;58.10
5556;DHT22;2801;50.972;7.856;2022-09-01T13:32:15;25.70;57.70
5556;DHT22;2801;50.972;7.856;2022-09-01T13:34:46;25.90;58.70
5556;DHT22;2801;50.972;7.856;2022-09-01T13:37:18;25.90;57.60
5556;DHT22;2801;50.972;7.856;2022-09-01T13:39:45;26.10;58.60
5556;DHT22;2801;50.972;7.856;2022-09-01T13:42:13;26.20;57.70
5556;DHT22;2801;50.972;7.856;2022-09-01T13:44:42;25.70;55.60
5556;DHT22;2801;50.972;7.856;2022-09-01T13:47:10;25.80;57.30
5556;DHT22;2801;50.972;7.856;2022-09-01T13:49:58;25.90;55.80
5556;DHT22;2801;50.972;7.856;2022-09-01T13:52:38;25.30;55.60
5556;DHT22;2801;50.972;7.856;2022-09-01T13:55:10;24.90;56.40
5556;DHT22;2801;50.972;7.856;2022-09-01T13:57:40;25.10;57.10
5556;DHT22;2801;50.972;7.856;2022-09-01T14:00:11;25.30;56.20
5556;DHT22;2801;50.972;7.856;2022-09-01T14:02:46;25.30;56.30
5556;DHT22;2801;50.972;7.856;2022-09-01T14:05:16;25.20;56.40
5556;DHT22;2801;50.972;7.856;2022-09-01T14:07:48;25.00;56.50
5556;DHT22;2801;50.972;7.856;2022-09-01T14:10:16;24.60;56.20
5556;DHT22;2801;50.972;7.856;2022-09-01T14:12:45;24.40;56.90
5556;DHT22;2801;50.972;7.856;2022-09-01T14:15:14;24.30;57.00
5556;DHT22;2801;50.972;7.856;2022-09-01T14:17:50;24.20;57.20
5556;DHT22;2801;50.972;7.856;2022-09-01T14:20:21;24.20;57.80
5556;DHT22;2801;50.972;7.856;2022-09-01T14:22:50;24.40;57.90
5556;DHT22;2801;50.972;7.856;2022-09-01T14:25:18;24.40;56.90
5556;DHT22;2801;50.972;7.856;2022-09-01T14:27:47;24.20;56.40
5556;DHT22;2801;50.972;7.856;2022-09-01T14:30:21;24.10;56.80
5556;DHT22;2801;50.972;7.856;2022-09-01T14:32:57;24.00;56.70
5556;DHT22;2801;50.972;7.856;2022-09-01T14:35:29;23.90;56.80
5556;DHT22;2801;50.972;7.856;2022-09-01T14:38:00;23.70;56.90
5556;DHT22;2801;50.972;7.856;2022-09-01T14:40:28;23.70;57.20
5556;DHT22;2801;50.972;7.856;2022-09-01T14:42:55;23.80;58.00
5556;DHT22;2801;50.972;7.856;2022-09-01T14:45:25;24.10;58.50
5556;DHT22;2801;50.972;7.856;2022-09-01T14:47:56;24.20;57.70
5556;DHT22;2801;50.972;7.856;2022-09-01T14:50:27;24.00;57.80
5556;DHT22;2801;50.972;7.856;2022-09-01T14:52:59;23.90;57.70
5556;DHT22;2801;50.972;7.856;2022-09-01T14:55:29;23.50;58.30
5556;DHT22;2801;50.972;7.856;2022-09-01T14:57:58;23.30;58.60
5556;DHT22;2801;50.972;7.856;2022-09-01T15:00:26;23.20;58.50
5556;DHT22;2801;50.972;7.856;2022-09-01T15:02:54;23.20;58.50
5556;DHT22;2801;50.972;7.856;2022-09-01T15:05:22;23.10;58.60
5556;DHT22;2801;50.972;7.856;2022-09-01T15:07:50;23.00;58.90
5556;DHT22;2801;50.972;7.856;2022-09-01T15:10:20;23.10;59.10
5556;DHT22;2801;50.972;7.856;2022-09-01T15:12:56;23.40;59.40
5556;DHT22;2801;50.972;7.856;2022-09-01T15:15:26;23.80;58.60
5556;DHT22;2801;50.972;7.856;2022-09-01T15:17:54;23.80;57.50
5556;DHT22;2801;50.972;7.856;2022-09-01T15:20:23;24.00;58.70
5556;DHT22;2801;50.972;7.856;2022-09-01T15:23:09;24.20;58.50
5556;DHT22;2801;50.972;7.856;2022-09-01T15:25:42;24.10;57.20
5556;DHT22;2801;50.972;7.856;2022-09-01T15:28:09;24.00;57.40
5556;DHT22;2801;50.972;7.856;2022-09-01T15:30:37;23.70;57.60
5556;DHT22;2801;50.972;7.856;2022-09-01T15:33:06;23.50;58.20
5556;DHT22;2801;50.972;7.856;2022-09-01T15:35:41;23.50;58.80
5556;DHT22;2801;50.972;7.856;2022-09-01T15:38:08;23.50;58.30
5556;DHT22;2801;50.972;7.856;2022-09-01T15:40:41;23.30;58.60
5556;DHT22;2801;50.972;7.856;2022-09-01T15:43:09;23.10;59.10
5556;DHT22;2801;50.972;7.856;2022-09-01T15:45:37;22.80;59.30
5556;DHT22;2801;50.972;7.856;2022-09-01T15:48:04;22.70;59.80
5556;DHT22;2801;50.972;7.856;2022-09-01T15:50:31;22.60;59.70
5556;DHT22;2801;50.972;7.856;2022-09-01T15:53:00;22.40;60.00
5556;DHT22;2801;50.972;7.856;2022-09-01T15:55:36;22.30;60.30
5556;DHT22;2801;50.972;7.856;2022-09-01T15:58:08;22.20;60.50
5556;DHT22;2801;50.972;7.856;2022-09-01T16:00:36;22.20;60.70
5556;DHT22;2801;50.972;7.856;2022-09-01T16:03:04;22.10;60.90
5556;DHT22;2801;50.972;7.856;2022-09-01T16:05:33;22.10;61.30
5556;DHT22;2801;50.972;7.856;2022-09-01T16:08:03;22.00;61.50
5556;DHT22;2801;50.972;7.856;2022-09-01T16:10:36;22.00;61.50
5556;DHT22;2801;50.972;7.856;2022-09-01T16:13:05;22.00;61.70
5556;DHT22;2801;50.972;7.856;2022-09-01T16:15:33;21.80;62.10
5556;DHT22;2801;50.972;7.856;2022-09-01T16:18:15;21.80;62.30
5556;DHT22;2801;50.972;7.856;2022-09-01T16:21:03;21.80;62.60
5556;DHT22;2801;50.972;7.856;2022-09-01T16:23:52;21.70;62.20
5556;DHT22;2801;50.972;7.856;2022-09-01T16:26:21;21.80;62.60
5556;DHT22;2801;50.972;7.856;2022-09-01T16:28:51;21.80;62.30
5556;DHT22;2801;50.972;7.856;2022-09-01T16:31:24;21.90;62.30
5556;DHT22;2801;50.972;7.856;2022-09-01T16:33:56;22.00;62.40
5556;DHT22;2801;50.972;7.856;2022-09-01T16:39:43;22.10;62.00
5556;DHT22;2801;50.972;7.856;2022-09-01T16:45:31;22.30;61.90
5556;DHT22;2801;50.972;7.856;2022-09-01T16:48:24;22.30;61.20
5556;DHT22;2801;50.972;7.856;2022-09-01T16:51:02;22.40;61.60
5556;DHT22;2801;50.972;7.856;2022-09-01T17:00:00;22.10;60.20
5556;DHT22;2801;50.972;7.856;2022-09-01T17:05:32;21.90;60.70
5556;DHT22;2801;50.972;7.856;2022-09-01T17:08:25;21.90;61.00
5556;DHT22;2801;50.972;7.856;2022-09-01T17:13:50;21.80;61.50
5556;DHT22;2801;50.972;7.856;2022-09-01T17:16:32;21.70;61.50
5556;DHT22;2801;50.972;7.856;2022-09-01T17:19:15;21.50;61.50
5556;DHT22;2801;50.972;7.856;2022-09-01T17:22:01;21.50;61.60
5556;DHT22;2801;50.972;7.856;2022-09-01T17:24:47;21.50;61.60
5556;DHT22;2801;50.972;7.856;2022-09-01T17:29:52;21.40;62.20
5556;DHT22;2801;50.972;7.856;2022-09-01T17:35:54;21.20;62.40
5556;DHT22;2801;50.972;7.856;2022-09-01T17:38:35;21.00;62.70
5556;DHT22;2801;50.972;7.856;2022-09-01T17:56:12;20.50;63.80
5556;DHT22;2801;50.972;7.856;2022-09-01T17:59:15;20.40;64.10
5556;DHT22;2801;50.972;7.856;2022-09-01T18:13:47;19.60;65.80
5556;DHT22;2801;50.972;7.856;2022-09-01T18:19:34;19.00;66.80
5556;DHT22;2801;50.972;7.856;2022-09-01T18:22:19;18.80;67.10
5556;DHT22;2801;50.972;7.856;2022-09-01T18:24:52;18.60;67.70
5556;DHT22;2801;50.972;7.856;2022-09-01T18:27:23;18.50;68.70
5556;DHT22;2801;50.972;7.856;2022-09-01T18:29:54;18.30;68.40
5556;DHT22;2801;50.972;7.856;2022-09-01T18:33:03;18.10;69.00
5556;DHT22;2801;50.972;7.856;2022-09-01T18:35:50;18.00;70.10
5556;DHT22;2801;50.972;7.856;2022-09-01T18:38:42;17.90;69.90